sensor_id;sensor_type;location;lat;lon;timestamp;P1;durP1;ratioP1;P2;durP2;ratioP2
49416;SDS011;35290;39.550;8.786;2023-03-25T00:00:02;37.80;;;28.95;;
49416;SDS011;35290;39.550;8.786;2023-03-25T00:05:01;38.20;;;27.75;;
49416;SDS011;35290;39.550;8.786;2023-03-25T00:07:27;38.70;;;28.95;;
49416;SDS011;35290;39.550;8.786;2023-03-25T00:09:53;43.05;;;28.48;;
49416;SDS011;35290;39.550;8.786;2023-03-25T00:12:18;40.08;;;27.75;;
49416;SDS011;35290;39.550;8.786;2023-03-25T00:14:44;40.28;;;28.50;;
49416;SDS011;35290;39.550;8.786;2023-03-25T00:17:19;38.95;;;26.10;;
49416;SDS011;35290;39.550;8.786;2023-03-25T00:19:46;35.42;;;24.98;;
49416;SDS011;35290;39.550;8.786;2023-03-25T00:22:14;30.85;;;23.98;;
49416;SDS011;35290;39.550;8.786;2023-03-25T00:24:41;29.45;;;23.00;;
49416;SDS011;35290;39.550;8.786;2023-03-25T00:27:06;30.33;;;21.85;;
49416;SDS011;35290;39.550;8.786;2023-03-25T00:29:32;35.97;;;22.02;;
49416;SDS011;35290;39.550;8.786;2023-03-25T00:31:57;27.38;;;21.42;;
49416;SDS011;35290;39.550;8.786;2023-03-25T00:34:23;32.72;;;22.58;;
49416;SDS011;35290;39.550;8.786;2023-03-25T00:36:48;33.78;;;24.48;;
49416;SDS011;35290;39.550;8.786;2023-03-25T00:39:14;37.20;;;25.92;;
49416;SDS011;35290;39.550;8.786;2023-03-25T00:41:39;33.95;;;24.85;;
49416;SDS011;35290;39.550;8.786;2023-03-25T00:44:08;38.20;;;26.33;;
49416;SDS011;35290;39.550;8.786;2023-03-25T00:46:36;54.88;;;27.38;;
49416;SDS011;35290;39.550;8.786;2023-03-25T00:49:02;39.42;;;27.10;;
49416;SDS011;35290;39.550;8.786;2023-03-25T00:51:28;41.20;;;28.48;;
49416;SDS011;35290;39.550;8.786;2023-03-25T00:53:56;44.58;;;27.50;;
49416;SDS011;35290;39.550;8.786;2023-03-25T00:56:25;45.00;;;28.83;;
49416;SDS011;35290;39.550;8.786;2023-03-25T00:58:51;45.33;;;28.45;;
49416;SDS011;35290;39.550;8.786;2023-03-25T01:01:18;44.92;;;28.88;;
49416;SDS011;35290;39.550;8.786;2023-03-25T01:03:51;47.10;;;29.90;;
49416;SDS011;35290;39.550;8.786;2023-03-25T01:06:35;39.58;;;27.33;;
49416;SDS011;35290;39.550;8.786;2023-03-25T01:09:03;31.90;;;23.45;;
49416;SDS011;35290;39.550;8.786;2023-03-25T01:11:31;35.45;;;24.33;;
49416;SDS011;35290;39.550;8.786;2023-03-25T01:14:02;37.70;;;25.23;;
49416;SDS011;35290;39.550;8.786;2023-03-25T01:16:29;36.75;;;25.30;;
49416;SDS011;35290;39.550;8.786;2023-03-25T01:18:54;40.13;;;26.60;;
49416;SDS011;35290;39.550;8.786;2023-03-25T01:21:20;37.13;;;26.50;;
49416;SDS011;35290;39.550;8.786;2023-03-25T01:23:46;33.53;;;23.95;;
49416;SDS011;35290;39.550;8.786;2023-03-25T01:26:12;29.08;;;22.13;;
49416;SDS011;35290;39.550;8.786;2023-03-25T01:28:38;25.45;;;20.65;;
49416;SDS011;35290;39.550;8.786;2023-03-25T01:31:06;25.48;;;20.40;;
49416;SDS011;35290;39.550;8.786;2023-03-25T01:33:32;24.08;;;19.77;;
49416;SDS011;35290;39.550;8.786;2023-03-25T01:35:58;23.23;;;20.00;;
49416;SDS011;35290;39.550;8.786;2023-03-25T01:38:24;24.83;;;19.38;;
49416;SDS011;35290;39.550;8.786;2023-03-25T01:40:51;21.88;;;18.35;;
49416;SDS011;35290;39.550;8.786;2023-03-25T01:43:17;21.92;;;19.50;;
49416;SDS011;35290;39.550;8.786;2023-03-25T01:45:43;22.23;;;19.02;;
49416;SDS011;35290;39.550;8.786;2023-03-25T01:48:21;20.80;;;18.00;;
49416;SDS011;35290;39.550;8.786;2023-03-25T01:50:57;19.75;;;17.30;;
49416;SDS011;35290;39.550;8.786;2023-03-25T01:53:25;22.83;;;16.70;;
49416;SDS011;35290;39.550;8.786;2023-03-25T01:55:52;19.05;;;16.77;;
49416;SDS011;35290;39.550;8.786;2023-03-25T01:58:19;18.35;;;16.25;;
49416;SDS011;35290;39.550;8.786;2023-03-25T02:00:45;18.88;;;16.88;;
49416;SDS011;35290;39.550;8.786;2023-03-25T02:03:11;21.58;;;17.42;;
49416;SDS011;35290;39.550;8.786;2023-03-25T02:05:42;21.23;;;17.33;;
49416;SDS011;35290;39.550;8.786;2023-03-25T02:08:13;20.80;;;17.65;;
49416;SDS011;35290;39.550;8.786;2023-03-25T02:10:40;18.80;;;16.60;;
49416;SDS011;35290;39.550;8.786;2023-03-25T02:13:06;19.85;;;16.98;;
49416;SDS011;35290;39.550;8.786;2023-03-25T02:15:36;23.67;;;18.27;;
49416;SDS011;35290;39.550;8.786;2023-03-25T02:38:11;29.65;;;23.30;;
49416;SDS011;35290;39.550;8.786;2023-03-25T02:46:12;27.98;;;21.63;;
49416;SDS011;35290;39.550;8.786;2023-03-25T02:48:52;27.80;;;21.23;;
49416;SDS011;35290;39.550;8.786;2023-03-25T02:51:39;25.63;;;20.65;;
49416;SDS011;35290;39.550;8.786;2023-03-25T02:54:10;24.40;;;19.75;;
49416;SDS011;35290;39.550;8.786;2023-03-25T02:56:37;22.83;;;19.83;;
49416;SDS011;35290;39.550;8.786;2023-03-25T02:59:05;26.95;;;20.50;;
49416;SDS011;35290;39.550;8.786;2023-03-25T03:01:33;31.83;;;20.92;;
49416;SDS011;35290;39.550;8.786;2023-03-25T03:03:59;50.00;;;20.58;;
49416;SDS011;35290;39.550;8.786;2023-03-25T03:06:38;53.38;;;19.17;;
49416;SDS011;35290;39.550;8.786;2023-03-25T03:11:56;19.58;;;17.40;;
49416;SDS011;35290;39.550;8.786;2023-03-25T03:14:30;18.02;;;16.13;;
49416;SDS011;35290;39.550;8.786;2023-03-25T03:19:43;16.10;;;14.27;;
49416;SDS011;35290;39.550;8.786;2023-03-25T03:22:28;14.40;;;12.90;;
49416;SDS011;35290;39.550;8.786;2023-03-25T03:27:44;14.98;;;12.55;;
49416;SDS011;35290;39.550;8.786;2023-03-25T03:30:24;13.90;;;12.18;;
49416;SDS011;35290;39.550;8.786;2023-03-25T03:35:43;11.65;;;10.55;;
49416;SDS011;35290;39.550;8.786;2023-03-25T03:38:14;10.32;;;8.68;;
49416;SDS011;35290;39.550;8.786;2023-03-25T03:40:42;10.07;;;8.18;;
49416;SDS011;35290;39.550;8.786;2023-03-25T03:43:12;8.63;;;7.70;;
49416;SDS011;35290;39.550;8.786;2023-03-25T03:45:50;8.13;;;6.43;;
49416;SDS011;35290;39.550;8.786;2023-03-25T03:48:19;7.90;;;5.75;;
49416;SDS011;35290;39.550;8.786;2023-03-25T03:51:01;7.72;;;5.90;;
49416;SDS011;35290;39.550;8.786;2023-03-25T03:53:39;7.03;;;5.65;;
49416;SDS011;35290;39.550;8.786;2023-03-25T03:56:10;9.32;;;5.63;;
49416;SDS011;35290;39.550;8.786;2023-03-25T03:58:46;8.23;;;5.40;;
49416;SDS011;35290;39.550;8.786;2023-03-25T04:01:15;13.00;;;5.93;;
49416;SDS011;35290;39.550;8.786;2023-03-25T04:04:10;9.93;;;6.07;;
49416;SDS011;35290;39.550;8.786;2023-03-25T04:06:38;8.55;;;6.30;;
49416;SDS011;35290;39.550;8.786;2023-03-25T04:11:58;8.93;;;6.72;;
49416;SDS011;35290;39.550;8.786;2023-03-25T04:14:25;9.10;;;7.00;;
49416;SDS011;35290;39.550;8.786;2023-03-25T04:16:51;9.07;;;7.05;;
49416;SDS011;35290;39.550;8.786;2023-03-25T04:19:17;10.85;;;7.82;;
49416;SDS011;35290;39.550;8.786;2023-03-25T04:21:43;9.13;;;7.50;;
49416;SDS011;35290;39.550;8.786;2023-03-25T04:24:11;11.10;;;8.75;;
49416;SDS011;35290;39.550;8.786;2023-03-25T04:26:41;11.27;;;9.30;;
49416;SDS011;35290;39.550;8.786;2023-03-25T04:29:07;12.18;;;9.13;;
49416;SDS011;35290;39.550;8.786;2023-03-25T04:31:34;11.40;;;9.00;;
49416;SDS011;35290;39.550;8.786;2023-03-25T04:33:59;12.43;;;9.77;;
49416;SDS011;35290;39.550;8.786;2023-03-25T04:36:26;13.63;;;9.77;;
49416;SDS011;35290;39.550;8.786;2023-03-25T04:39:19;16.27;;;12.20;;
49416;SDS011;35290;39.550;8.786;2023-03-25T04:41:51;13.52;;;11.23;;
49416;SDS011;35290;39.550;8.786;2023-03-25T04:44:27;14.65;;;11.50;;
49416;SDS011;35290;39.550;8.786;2023-03-25T04:47:03;17.80;;;12.30;;
49416;SDS011;35290;39.550;8.786;2023-03-25T04:49:30;17.27;;;12.93;;
49416;SDS011;35290;39.550;8.786;2023-03-25T04:51:56;18.50;;;13.27;;
49416;SDS011;35290;39.550;8.786;2023-03-25T04:54:23;21.33;;;13.45;;
49416;SDS011;35290;39.550;8.786;2023-03-25T04:56:49;14.75;;;11.95;;
49416;SDS011;35290;39.550;8.786;2023-03-25T04:59:16;16.65;;;11.88;;
49416;SDS011;35290;39.550;8.786;2023-03-25T05:01:45;16.08;;;11.13;;
49416;SDS011;35290;39.550;8.786;2023-03-25T05:04:12;14.85;;;11.05;;
49416;SDS011;35290;39.550;8.786;2023-03-25T05:06:41;13.63;;;10.63;;
49416;SDS011;35290;39.550;8.786;2023-03-25T05:09:09;14.57;;;10.00;;
49416;SDS011;35290;39.550;8.786;2023-03-25T05:11:38;12.65;;;11.07;;
49416;SDS011;35290;39.550;8.786;2023-03-25T05:14:05;14.15;;;12.13;;
49416;SDS011;35290;39.550;8.786;2023-03-25T05:16:32;16.15;;;12.40;;
49416;SDS011;35290;39.550;8.786;2023-03-25T05:18:58;17.38;;;13.02;;
49416;SDS011;35290;39.550;8.786;2023-03-25T05:21:23;15.65;;;12.18;;
49416;SDS011;35290;39.550;8.786;2023-03-25T05:23:49;18.30;;;13.77;;
49416;SDS011;35290;39.550;8.786;2023-03-25T05:26:15;19.50;;;13.90;;
49416;SDS011;35290;39.550;8.786;2023-03-25T05:28:41;17.55;;;13.77;;
49416;SDS011;35290;39.550;8.786;2023-03-25T05:31:07;18.85;;;13.90;;
49416;SDS011;35290;39.550;8.786;2023-03-25T05:33:36;17.17;;;14.50;;
49416;SDS011;35290;39.550;8.786;2023-03-25T05:38:35;18.60;;;15.00;;
49416;SDS011;35290;39.550;8.786;2023-03-25T05:41:01;20.95;;;15.25;;
49416;SDS011;35290;39.550;8.786;2023-03-25T05:43:27;19.98;;;14.70;;
49416;SDS011;35290;39.550;8.786;2023-03-25T05:45:52;20.52;;;14.80;;
49416;SDS011;35290;39.550;8.786;2023-03-25T05:48:18;18.65;;;15.23;;
49416;SDS011;35290;39.550;8.786;2023-03-25T05:50:43;19.90;;;15.38;;
49416;SDS011;35290;39.550;8.786;2023-03-25T05:53:12;18.05;;;14.80;;
49416;SDS011;35290;39.550;8.786;2023-03-25T05:55:40;18.35;;;15.10;;
49416;SDS011;35290;39.550;8.786;2023-03-25T05:58:05;19.40;;;14.82;;
49416;SDS011;35290;39.550;8.786;2023-03-25T06:00:31;18.67;;;15.55;;
49416;SDS011;35290;39.550;8.786;2023-03-25T06:02:57;17.83;;;14.68;;
49416;SDS011;35290;39.550;8.786;2023-03-25T06:05:23;25.70;;;16.55;;
49416;SDS011;35290;39.550;8.786;2023-03-25T06:07:50;20.02;;;15.82;;
49416;SDS011;35290;39.550;8.786;2023-03-25T06:10:20;23.63;;;14.88;;
49416;SDS011;35290;39.550;8.786;2023-03-25T06:12:46;19.48;;;15.45;;
49416;SDS011;35290;39.550;8.786;2023-03-25T06:15:13;20.00;;;14.65;;
49416;SDS011;35290;39.550;8.786;2023-03-25T06:17:42;17.75;;;13.82;;
49416;SDS011;35290;39.550;8.786;2023-03-25T06:20:11;17.05;;;13.80;;
49416;SDS011;35290;39.550;8.786;2023-03-25T06:22:42;21.35;;;14.90;;
49416;SDS011;35290;39.550;8.786;2023-03-25T06:25:09;17.50;;;13.52;;
49416;SDS011;35290;39.550;8.786;2023-03-25T06:27:43;16.10;;;12.95;;
49416;SDS011;35290;39.550;8.786;2023-03-25T06:30:10;15.10;;;12.25;;
49416;SDS011;35290;39.550;8.786;2023-03-25T06:32:54;15.20;;;11.63;;
49416;SDS011;35290;39.550;8.786;2023-03-25T06:35:19;16.27;;;12.85;;
49416;SDS011;35290;39.550;8.786;2023-03-25T06:37:46;18.48;;;13.00;;
49416;SDS011;35290;39.550;8.786;2023-03-25T06:40:13;13.18;;;11.10;;
49416;SDS011;35290;39.550;8.786;2023-03-25T06:42:38;14.07;;;9.95;;
49416;SDS011;35290;39.550;8.786;2023-03-25T06:45:06;18.55;;;10.65;;
49416;SDS011;35290;39.550;8.786;2023-03-25T06:47:32;16.65;;;11.20;;
49416;SDS011;35290;39.550;8.786;2023-03-25T06:49:57;16.13;;;10.73;;
49416;SDS011;35290;39.550;8.786;2023-03-25T06:52:23;17.88;;;12.40;;
49416;SDS011;35290;39.550;8.786;2023-03-25T06:54:48;16.98;;;11.02;;
49416;SDS011;35290;39.550;8.786;2023-03-25T06:57:14;18.40;;;13.30;;
49416;SDS011;35290;39.550;8.786;2023-03-25T06:59:39;18.40;;;11.70;;
49416;SDS011;35290;39.550;8.786;2023-03-25T07:02:05;17.13;;;12.73;;
49416;SDS011;35290;39.550;8.786;2023-03-25T07:04:31;19.45;;;13.57;;
49416;SDS011;35290;39.550;8.786;2023-03-25T07:06:56;18.92;;;13.73;;
49416;SDS011;35290;39.550;8.786;2023-03-25T07:09:22;18.48;;;13.38;;
49416;SDS011;35290;39.550;8.786;2023-03-25T07:11:47;15.13;;;12.60;;
49416;SDS011;35290;39.550;8.786;2023-03-25T07:14:13;19.23;;;12.82;;
49416;SDS011;35290;39.550;8.786;2023-03-25T07:16:38;19.73;;;14.23;;
49416;SDS011;35290;39.550;8.786;2023-03-25T07:19:04;21.17;;;14.00;;
49416;SDS011;35290;39.550;8.786;2023-03-25T07:21:30;21.90;;;14.13;;
49416;SDS011;35290;39.550;8.786;2023-03-25T07:23:55;22.20;;;13.65;;
49416;SDS011;35290;39.550;8.786;2023-03-25T07:26:21;20.35;;;12.32;;
49416;SDS011;35290;39.550;8.786;2023-03-25T07:28:46;21.17;;;10.98;;
49416;SDS011;35290;39.550;8.786;2023-03-25T07:31:15;20.17;;;11.20;;
49416;SDS011;35290;39.550;8.786;2023-03-25T07:33:41;21.55;;;10.98;;
49416;SDS011;35290;39.550;8.786;2023-03-25T07:36:07;18.70;;;10.80;;
49416;SDS011;35290;39.550;8.786;2023-03-25T07:38:34;20.25;;;10.15;;
49416;SDS011;35290;39.550;8.786;2023-03-25T07:41:03;16.75;;;9.20;;
49416;SDS011;35290;39.550;8.786;2023-03-25T07:43:29;18.67;;;10.50;;
49416;SDS011;35290;39.550;8.786;2023-03-25T07:45:57;17.45;;;11.63;;
49416;SDS011;35290;39.550;8.786;2023-03-25T07:48:22;19.73;;;11.80;;
49416;SDS011;35290;39.550;8.786;2023-03-25T07:50:49;20.13;;;11.55;;
49416;SDS011;35290;39.550;8.786;2023-03-25T07:53:16;20.80;;;12.85;;
49416;SDS011;35290;39.550;8.786;2023-03-25T07:55:42;18.52;;;11.38;;
49416;SDS011;35290;39.550;8.786;2023-03-25T07:58:09;21.73;;;11.68;;
49416;SDS011;35290;39.550;8.786;2023-03-25T08:00:35;17.80;;;10.48;;
49416;SDS011;35290;39.550;8.786;2023-03-25T08:03:01;16.38;;;8.98;;
49416;SDS011;35290;39.550;8.786;2023-03-25T08:05:27;16.17;;;9.32;;
49416;SDS011;35290;39.550;8.786;2023-03-25T08:07:53;17.63;;;9.50;;
49416;SDS011;35290;39.550;8.786;2023-03-25T08:10:19;19.10;;;8.88;;
49416;SDS011;35290;39.550;8.786;2023-03-25T08:12:45;18.25;;;9.32;;
49416;SDS011;35290;39.550;8.786;2023-03-25T08:15:11;14.32;;;9.77;;
49416;SDS011;35290;39.550;8.786;2023-03-25T08:28:32;19.17;;;10.93;;
49416;SDS011;35290;39.550;8.786;2023-03-25T08:30:57;19.42;;;10.63;;
49416;SDS011;35290;39.550;8.786;2023-03-25T08:33:26;16.08;;;11.25;;
49416;SDS011;35290;39.550;8.786;2023-03-25T08:35:58;16.50;;;10.68;;
49416;SDS011;35290;39.550;8.786;2023-03-25T08:38:25;23.80;;;12.63;;
49416;SDS011;35290;39.550;8.786;2023-03-25T08:40:55;24.63;;;12.27;;
49416;SDS011;35290;39.550;8.786;2023-03-25T08:43:20;21.13;;;11.07;;
49416;SDS011;35290;39.550;8.786;2023-03-25T08:45:46;11.93;;;8.00;;
49416;SDS011;35290;39.550;8.786;2023-03-25T08:48:11;14.27;;;8.38;;
49416;SDS011;35290;39.550;8.786;2023-03-25T08:50:37;13.88;;;7.28;;
49416;SDS011;35290;39.550;8.786;2023-03-25T08:53:02;16.17;;;7.28;;
49416;SDS011;35290;39.550;8.786;2023-03-25T08:55:28;16.67;;;7.65;;
49416;SDS011;35290;39.550;8.786;2023-03-25T08:57:53;12.07;;;7.80;;
49416;SDS011;35290;39.550;8.786;2023-03-25T09:00:19;14.77;;;8.05;;
49416;SDS011;35290;39.550;8.786;2023-03-25T09:02:48;13.43;;;7.70;;
49416;SDS011;35290;39.550;8.786;2023-03-25T09:05:14;15.88;;;7.72;;
49416;SDS011;35290;39.550;8.786;2023-03-25T09:07:40;13.10;;;7.15;;
49416;SDS011;35290;39.550;8.786;2023-03-25T09:10:06;11.77;;;6.90;;
49416;SDS011;35290;39.550;8.786;2023-03-25T09:12:32;10.70;;;6.20;;
49416;SDS011;35290;39.550;8.786;2023-03-25T09:14:58;12.07;;;6.60;;
49416;SDS011;35290;39.550;8.786;2023-03-25T09:17:23;11.82;;;6.40;;
49416;SDS011;35290;39.550;8.786;2023-03-25T09:19:49;11.38;;;7.00;;
49416;SDS011;35290;39.550;8.786;2023-03-25T09:22:15;13.43;;;6.40;;
49416;SDS011;35290;39.550;8.786;2023-03-25T09:24:41;18.15;;;9.73;;
49416;SDS011;35290;39.550;8.786;2023-03-25T09:27:07;18.38;;;10.60;;
49416;SDS011;35290;39.550;8.786;2023-03-25T09:29:33;14.93;;;6.10;;
49416;SDS011;35290;39.550;8.786;2023-03-25T09:31:58;15.68;;;6.40;;
49416;SDS011;35290;39.550;8.786;2023-03-25T09:34:25;13.52;;;7.97;;
49416;SDS011;35290;39.550;8.786;2023-03-25T09:36:51;10.93;;;5.90;;
49416;SDS011;35290;39.550;8.786;2023-03-25T09:39:18;14.00;;;6.40;;
49416;SDS011;35290;39.550;8.786;2023-03-25T09:41:56;17.00;;;7.88;;
49416;SDS011;35290;39.550;8.786;2023-03-25T09:44:29;10.63;;;4.50;;
49416;SDS011;35290;39.550;8.786;2023-03-25T09:47:03;11.95;;;4.32;;
49416;SDS011;35290;39.550;8.786;2023-03-25T09:49:36;10.70;;;4.72;;
49416;SDS011;35290;39.550;8.786;2023-03-25T09:52:04;11.05;;;4.03;;
49416;SDS011;35290;39.550;8.786;2023-03-25T09:54:34;11.45;;;3.17;;
49416;SDS011;35290;39.550;8.786;2023-03-25T09:57:03;6.40;;;3.30;;
49416;SDS011;35290;39.550;8.786;2023-03-25T09:59:36;12.05;;;4.35;;
49416;SDS011;35290;39.550;8.786;2023-03-25T10:08:07;6.53;;;3.05;;
49416;SDS011;35290;39.550;8.786;2023-03-25T10:16:06;9.40;;;3.80;;
49416;SDS011;35290;39.550;8.786;2023-03-25T10:18:43;12.48;;;3.42;;
49416;SDS011;35290;39.550;8.786;2023-03-25T10:27:21;10.68;;;3.40;;
49416;SDS011;35290;39.550;8.786;2023-03-25T10:30:09;12.00;;;3.33;;
49416;SDS011;35290;39.550;8.786;2023-03-25T10:37:56;10.10;;;3.08;;
49416;SDS011;35290;39.550;8.786;2023-03-25T10:45:38;8.48;;;3.08;;
49416;SDS011;35290;39.550;8.786;2023-03-25T10:48:10;10.75;;;3.40;;
49416;SDS011;35290;39.550;8.786;2023-03-25T10:50:40;9.27;;;3.92;;
49416;SDS011;35290;39.550;8.786;2023-03-25T10:53:10;8.18;;;3.38;;
49416;SDS011;35290;39.550;8.786;2023-03-25T10:55:50;11.60;;;2.80;;
49416;SDS011;35290;39.550;8.786;2023-03-25T10:58:20;8.93;;;2.65;;
49416;SDS011;35290;39.550;8.786;2023-03-25T11:00:46;8.68;;;2.75;;
49416;SDS011;35290;39.550;8.786;2023-03-25T11:03:20;8.68;;;2.97;;
49416;SDS011;35290;39.550;8.786;2023-03-25T11:05:48;7.35;;;2.38;;
49416;SDS011;35290;39.550;8.786;2023-03-25T11:08:13;5.50;;;1.90;;
49416;SDS011;35290;39.550;8.786;2023-03-25T11:10:39;7.55;;;2.38;;
49416;SDS011;35290;39.550;8.786;2023-03-25T11:13:09;9.70;;;2.10;;
49416;SDS011;35290;39.550;8.786;2023-03-25T11:15:37;5.93;;;1.88;;
49416;SDS011;35290;39.550;8.786;2023-03-25T11:18:21;9.45;;;2.50;;
49416;SDS011;35290;39.550;8.786;2023-03-25T11:20:52;5.65;;;1.80;;
49416;SDS011;35290;39.550;8.786;2023-03-25T11:26:07;8.38;;;2.50;;
49416;SDS011;35290;39.550;8.786;2023-03-25T11:28:55;8.65;;;2.60;;
49416;SDS011;35290;39.550;8.786;2023-03-25T11:31:26;9.60;;;2.87;;
49416;SDS011;35290;39.550;8.786;2023-03-25T11:36:35;13.43;;;3.15;;
49416;SDS011;35290;39.550;8.786;2023-03-25T11:39:15;8.25;;;2.47;;
49416;SDS011;35290;39.550;8.786;2023-03-25T11:41:42;11.18;;;2.63;;
49416;SDS011;35290;39.550;8.786;2023-03-25T11:44:14;11.27;;;2.80;;
49416;SDS011;35290;39.550;8.786;2023-03-25T11:46:54;8.45;;;2.65;;
49416;SDS011;35290;39.550;8.786;2023-03-25T11:49:25;8.60;;;2.55;;
49416;SDS011;35290;39.550;8.786;2023-03-25T11:52:01;10.73;;;2.80;;
49416;SDS011;35290;39.550;8.786;2023-03-25T11:54:29;8.40;;;2.15;;
49416;SDS011;35290;39.550;8.786;2023-03-25T11:56:57;11.85;;;2.42;;
49416;SDS011;35290;39.550;8.786;2023-03-25T11:59:26;10.57;;;2.65;;
49416;SDS011;35290;39.550;8.786;2023-03-25T12:02:01;9.98;;;1.90;;
49416;SDS011;35290;39.550;8.786;2023-03-25T12:04:28;9.85;;;2.10;;
49416;SDS011;35290;39.550;8.786;2023-03-25T12:09:25;6.82;;;1.80;;
49416;SDS011;35290;39.550;8.786;2023-03-25T12:17:49;6.70;;;1.92;;
49416;SDS011;35290;39.550;8.786;2023-03-25T12:20:28;4.53;;;1.20;;
49416;SDS011;35290;39.550;8.786;2023-03-25T12:23:02;6.25;;;2.03;;
49416;SDS011;35290;39.550;8.786;2023-03-25T12:25:58;5.97;;;1.92;;
49416;SDS011;35290;39.550;8.786;2023-03-25T12:31:05;8.05;;;1.85;;
49416;SDS011;35290;39.550;8.786;2023-03-25T12:41:38;4.88;;;1.98;;
49416;SDS011;35290;39.550;8.786;2023-03-25T12:44:09;5.78;;;1.95;;
49416;SDS011;35290;39.550;8.786;2023-03-25T13:03:29;5.55;;;1.60;;
49416;SDS011;35290;39.550;8.786;2023-03-25T13:06:13;4.72;;;1.15;;
49416;SDS011;35290;39.550;8.786;2023-03-25T13:08:44;4.07;;;1.58;;
49416;SDS011;35290;39.550;8.786;2023-03-25T13:11:57;4.78;;;1.50;;
49416;SDS011;35290;39.550;8.786;2023-03-25T13:14:20;5.30;;;1.70;;
49416;SDS011;35290;39.550;8.786;2023-03-25T13:16:50;8.10;;;2.92;;
49416;SDS011;35290;39.550;8.786;2023-03-25T13:19:22;6.07;;;2.63;;
49416;SDS011;35290;39.550;8.786;2023-03-25T13:21:56;5.18;;;1.88;;
49416;SDS011;35290;39.550;8.786;2023-03-25T13:27:02;4.07;;;1.80;;
49416;SDS011;35290;39.550;8.786;2023-03-25T13:29:42;5.85;;;2.13;;
49416;SDS011;35290;39.550;8.786;2023-03-25T13:32:35;8.68;;;2.78;;
49416;SDS011;35290;39.550;8.786;2023-03-25T13:38:06;8.25;;;2.10;;
49416;SDS011;35290;39.550;8.786;2023-03-25T13:46:18;11.70;;;5.70;;
49416;SDS011;35290;39.550;8.786;2023-03-25T13:48:47;4.82;;;2.00;;
49416;SDS011;35290;39.550;8.786;2023-03-25T13:51:17;5.05;;;1.63;;
49416;SDS011;35290;39.550;8.786;2023-03-25T13:53:44;6.53;;;1.75;;
49416;SDS011;35290;39.550;8.786;2023-03-25T13:59:26;8.30;;;1.95;;
49416;SDS011;35290;39.550;8.786;2023-03-25T14:02:20;3.25;;;1.67;;
49416;SDS011;35290;39.550;8.786;2023-03-25T14:08:03;5.78;;;1.85;;
49416;SDS011;35290;39.550;8.786;2023-03-25T14:13:17;6.65;;;2.10;;
49416;SDS011;35290;39.550;8.786;2023-03-25T14:15:59;5.70;;;1.70;;
49416;SDS011;35290;39.550;8.786;2023-03-25T14:18:31;5.18;;;2.40;;
49416;SDS011;35290;39.550;8.786;2023-03-25T14:21:10;6.97;;;3.67;;
49416;SDS011;35290;39.550;8.786;2023-03-25T14:24:03;4.43;;;1.55;;
49416;SDS011;35290;39.550;8.786;2023-03-25T14:26:32;6.40;;;1.90;;
49416;SDS011;35290;39.550;8.786;2023-03-25T14:29:02;6.93;;;1.50;;
49416;SDS011;35290;39.550;8.786;2023-03-25T14:31:32;7.88;;;3.20;;
49416;SDS011;35290;39.550;8.786;2023-03-25T14:39:08;4.40;;;1.55;;
49416;SDS011;35290;39.550;8.786;2023-03-25T14:44:41;6.05;;;1.55;;
49416;SDS011;35290;39.550;8.786;2023-03-25T14:52:37;6.03;;;1.52;;
49416;SDS011;35290;39.550;8.786;2023-03-25T14:55:11;5.68;;;1.70;;
49416;SDS011;35290;39.550;8.786;2023-03-25T14:57:41;6.78;;;1.90;;
49416;SDS011;35290;39.550;8.786;2023-03-25T15:00:07;6.78;;;2.17;;
49416;SDS011;35290;39.550;8.786;2023-03-25T15:02:37;7.35;;;1.70;;
49416;SDS011;35290;39.550;8.786;2023-03-25T15:05:13;5.68;;;1.80;;
49416;SDS011;35290;39.550;8.786;2023-03-25T15:11:08;9.37;;;3.10;;
49416;SDS011;35290;39.550;8.786;2023-03-25T15:13:41;6.55;;;2.97;;
49416;SDS011;35290;39.550;8.786;2023-03-25T15:16:21;7.18;;;2.80;;
49416;SDS011;35290;39.550;8.786;2023-03-25T15:21:16;6.85;;;2.65;;
49416;SDS011;35290;39.550;8.786;2023-03-25T15:23:43;8.20;;;2.38;;
49416;SDS011;35290;39.550;8.786;2023-03-25T15:26:12;6.15;;;1.73;;
49416;SDS011;35290;39.550;8.786;2023-03-25T15:34:31;7.20;;;2.97;;
49416;SDS011;35290;39.550;8.786;2023-03-25T15:40:11;11.38;;;3.92;;
49416;SDS011;35290;39.550;8.786;2023-03-25T15:54:00;8.02;;;3.25;;
49416;SDS011;35290;39.550;8.786;2023-03-25T16:00:11;9.48;;;4.40;;
49416;SDS011;35290;39.550;8.786;2023-03-25T16:05:19;10.65;;;3.60;;
49416;SDS011;35290;39.550;8.786;2023-03-25T16:07:46;8.95;;;4.10;;
49416;SDS011;35290;39.550;8.786;2023-03-25T16:10:13;7.35;;;2.70;;
49416;SDS011;35290;39.550;8.786;2023-03-25T16:12:51;8.75;;;3.05;;
49416;SDS011;35290;39.550;8.786;2023-03-25T16:15:24;10.80;;;2.78;;
49416;SDS011;35290;39.550;8.786;2023-03-25T16:17:51;9.75;;;2.38;;
49416;SDS011;35290;39.550;8.786;2023-03-25T16:20:19;9.05;;;2.00;;
49416;SDS011;35290;39.550;8.786;2023-03-25T16:22:51;33.78;;;17.45;;
49416;SDS011;35290;39.550;8.786;2023-03-25T16:25:35;14.77;;;8.13;;
49416;SDS011;35290;39.550;8.786;2023-03-25T16:28:06;8.45;;;3.80;;
49416;SDS011;35290;39.550;8.786;2023-03-25T16:30:40;7.75;;;2.42;;
49416;SDS011;35290;39.550;8.786;2023-03-25T16:35:35;9.10;;;2.53;;
49416;SDS011;35290;39.550;8.786;2023-03-25T16:38:02;13.50;;;2.65;;
49416;SDS011;35290;39.550;8.786;2023-03-25T16:40:35;11.68;;;3.08;;
49416;SDS011;35290;39.550;8.786;2023-03-25T16:43:10;10.05;;;2.83;;
49416;SDS011;35290;39.550;8.786;2023-03-25T16:45:37;12.18;;;3.20;;
49416;SDS011;35290;39.550;8.786;2023-03-25T16:48:09;16.40;;;5.15;;
49416;SDS011;35290;39.550;8.786;2023-03-25T16:50:38;13.27;;;5.03;;
49416;SDS011;35290;39.550;8.786;2023-03-25T16:53:04;13.60;;;5.82;;
49416;SDS011;35290;39.550;8.786;2023-03-25T16:55:31;16.40;;;6.28;;
49416;SDS011;35290;39.550;8.786;2023-03-25T16:58:12;15.40;;;4.55;;
49416;SDS011;35290;39.550;8.786;2023-03-25T17:00:43;13.50;;;4.13;;
49416;SDS011;35290;39.550;8.786;2023-03-25T17:03:16;14.98;;;3.63;;
49416;SDS011;35290;39.550;8.786;2023-03-25T17:06:10;15.18;;;4.03;;
49416;SDS011;35290;39.550;8.786;2023-03-25T17:08:53;14.50;;;3.22;;
49416;SDS011;35290;39.550;8.786;2023-03-25T17:11:21;10.65;;;2.70;;
49416;SDS011;35290;39.550;8.786;2023-03-25T17:13:50;13.60;;;3.10;;
49416;SDS011;35290;39.550;8.786;2023-03-25T17:16:25;10.32;;;3.00;;
49416;SDS011;35290;39.550;8.786;2023-03-25T17:18:51;14.77;;;2.40;;
49416;SDS011;35290;39.550;8.786;2023-03-25T17:21:20;11.85;;;3.38;;
49416;SDS011;35290;39.550;8.786;2023-03-25T17:24:24;13.75;;;2.70;;
49416;SDS011;35290;39.550;8.786;2023-03-25T17:26:54;14.00;;;4.00;;
49416;SDS011;35290;39.550;8.786;2023-03-25T17:29:28;18.08;;;3.92;;
49416;SDS011;35290;39.550;8.786;2023-03-25T17:31:54;15.25;;;3.38;;
49416;SDS011;35290;39.550;8.786;2023-03-25T17:34:22;16.38;;;5.07;;
49416;SDS011;35290;39.550;8.786;2023-03-25T17:36:49;13.75;;;4.47;;
49416;SDS011;35290;39.550;8.786;2023-03-25T17:39:29;18.17;;;4.65;;
49416;SDS011;35290;39.550;8.786;2023-03-25T17:41:59;22.15;;;5.38;;
49416;SDS011;35290;39.550;8.786;2023-03-25T17:44:36;15.98;;;4.75;;
49416;SDS011;35290;39.550;8.786;2023-03-25T17:47:03;21.83;;;5.30;;
49416;SDS011;35290;39.550;8.786;2023-03-25T17:49:30;18.77;;;5.30;;
49416;SDS011;35290;39.550;8.786;2023-03-25T17:51:55;20.30;;;5.57;;
49416;SDS011;35290;39.550;8.786;2023-03-25T17:54:22;17.63;;;5.50;;
49416;SDS011;35290;39.550;8.786;2023-03-25T17:56:48;17.13;;;6.07;;
49416;SDS011;35290;39.550;8.786;2023-03-25T17:59:21;21.80;;;6.65;;
49416;SDS011;35290;39.550;8.786;2023-03-25T18:01:49;21.98;;;5.07;;